CheckWX is a tool to help pilots better visualize weather data.  It is not intended as a substitute for an official pre-flight weather briefing.

22:20:41 UTC

KFYV TAF
Drake Field Airport
Fayetteville, Arkansas, USA
KFYV 191733Z 1918/2018 23004KT P6SM BKN050 FM200600 00000KT 4SM BR OVC025 FM200900 00000KT 1SM BR BKN010 TEMPO 2009/2013 1/2SM FG OVC003 FM201400 16005KT P6SM SCT005

Oct-19@
18:00 UTC

Oct-19 @ 18:00 UTC

Oct-20@
06:00 UTC

Oct-20 @ 06:00 UTC

KFYV 191733Z 1918/2018 23004KT P6SM BKN050
Wind
  • 230° at 4 KTS
Cloud Levels
  • Broken at 5,000' AGL

Oct-20@
06:00 UTC

Oct-20 @ 06:00 UTC

Oct-20@
09:00 UTC

Oct-20 @ 09:00 UTC

FM200600 00000KT 4SM BR OVC025

From

From Standard forecast or significant change

Conditions
Mist
Cloud Levels
  • Overcast at 2,500' AGL

Oct-20@
09:00 UTC

Oct-20 @ 09:00 UTC

Oct-20@
13:00 UTC

Oct-20 @ 13:00 UTC

TEMPO 2009/2013 1/2SM FG OVC003

Temporary

Temporary Changes expected for less than half the time period

Conditions
Fog
Cloud Levels
  • Overcast at 300' AGL

Oct-20@
09:00 UTC

Oct-20 @ 09:00 UTC

Oct-20@
14:00 UTC

Oct-20 @ 14:00 UTC

FM200900 00000KT 1SM BR BKN010

From

From Standard forecast or significant change

Conditions
Mist
Cloud Levels
  • Broken at 1,000' AGL

Oct-20@
14:00 UTC

Oct-20 @ 14:00 UTC

Oct-20@
18:00 UTC

Oct-20 @ 18:00 UTC

FM201400 16005KT P6SM SCT005

From

From Standard forecast or significant change

Wind
  • 160° at 5 KTS
Cloud Levels
  • Scattered at 500' AGL